OPRN/ISB METAR and TAF weather

Enter ICAO airport designator
Station Type Date Time Source
OPRN METAR 2021/04/01 00:00 UTC NOAA

OPRN 010000Z METAR OPSK 010000Z 00000KT 3000 HZ NSC 18/06 Q1001 NOSIG


Station Type Date Time Source
OPRN Decoded METAR 2021/04/01 00:00 UTC NOAA

Islamabad Airport, Pakistan (OPRN) 33-37N 073-06E 508M
Mar 31, 2021 - 08:00 PM EDT / 2021.04.01 0000 UTC
Wind: Calm:0
Visibility: 1 mile(s):0
Weather: haze
Temperature: 64 F (18 C)
Dew Point: 42 F (6 C)
Relative Humidity: 45%
Pressure (altimeter): 29.56 in. Hg (1001 hPa)
ob: OPRN 010000Z METAR OPSK 010000Z 00000KT 3000 HZ NSC 18/06 Q1001 NOSIG
cycle: 0

Station Type Date Time Source
OPRN TAF 2019/05/15 18:06 UTC NOAA

TAF OPRN 151530Z 1518/1624 13010KT 7000 SCT040 SCT100
TEMPO 1518/1521 13010G25KT 5000 VCTS FEW030TCU/CB SCT040 BKN100
BECMG 1603/1605 23010KT 9999 FEW040

Example: see airport list